createdAt,value
2018-12-18T00:01:55.073Z,2.10
2018-12-18T00:04:24.626Z,2.10
2018-12-18T00:06:56.205Z,2.00
2018-12-18T00:09:27.438Z,2.00
2018-12-18T00:12:01.461Z,2.00
2018-12-18T00:14:33.089Z,1.90
2018-12-18T00:17:03.502Z,1.90
2018-12-18T00:19:44.313Z,1.90
2018-12-18T00:22:15.795Z,1.90
2018-12-18T00:27:50.652Z,1.90
2018-12-18T00:30:23.221Z,1.90
2018-12-18T00:32:57.522Z,1.90
2018-12-18T00:35:32.000Z,1.90
2018-12-18T00:38:03.540Z,1.90
2018-12-18T00:40:35.034Z,1.90
2018-12-18T00:43:13.541Z,1.90
2018-12-18T00:45:58.099Z,1.90
2018-12-18T00:48:36.692Z,2.00
2018-12-18T00:51:11.015Z,1.90
2018-12-18T00:53:45.324Z,2.00
2018-12-18T00:56:19.556Z,1.90
2018-12-18T00:59:00.385Z,1.90
2018-12-18T01:01:34.362Z,1.90
2018-12-18T01:04:05.956Z,1.80
2018-12-18T01:06:38.101Z,1.70
2018-12-18T01:09:09.400Z,1.70
2018-12-18T01:11:41.543Z,1.60
2018-12-18T01:14:12.810Z,1.60
2018-12-18T01:16:44.955Z,1.60
2018-12-18T01:19:19.759Z,1.60
2018-12-18T01:21:54.378Z,1.60
2018-12-18T01:24:30.179Z,1.60
2018-12-18T01:27:02.210Z,1.50
2018-12-18T01:29:33.584Z,1.50
2018-12-18T01:32:04.870Z,1.50
2018-12-18T01:34:34.211Z,1.40
2018-12-18T01:37:03.504Z,1.40
2018-12-18T01:39:33.770Z,1.40
2018-12-18T01:42:10.374Z,1.30
2018-12-18T01:44:42.069Z,1.30
2018-12-18T01:47:12.663Z,1.30
2018-12-18T01:49:48.380Z,1.30
2018-12-18T01:52:24.494Z,1.20
2018-12-18T01:54:56.562Z,1.30
2018-12-18T01:57:34.365Z,1.30
2018-12-18T02:00:08.718Z,1.20
2018-12-18T02:02:43.151Z,1.20
2018-12-18T02:05:23.802Z,1.10
2018-12-18T02:07:53.113Z,1.10
2018-12-18T02:13:20.579Z,1.00
2018-12-18T02:15:52.230Z,1.00
2018-12-18T02:18:22.325Z,1.10
2018-12-18T02:20:56.253Z,1.10
2018-12-18T02:23:27.942Z,1.10
2018-12-18T02:25:59.201Z,1.10
2018-12-18T02:28:32.862Z,1.10
2018-12-18T02:31:04.733Z,1.10
2018-12-18T02:33:40.965Z,1.10
2018-12-18T02:36:15.613Z,1.10
2018-12-18T02:38:50.145Z,1.10
2018-12-18T02:41:22.266Z,1.10
2018-12-18T02:43:54.345Z,1.10
2018-12-18T02:46:26.408Z,1.10
2018-12-18T02:48:57.633Z,1.10
2018-12-18T02:51:31.333Z,0.90
2018-12-18T02:54:03.069Z,0.90
2018-12-18T02:56:36.815Z,0.80
2018-12-18T02:59:15.093Z,0.80
2018-12-18T03:01:44.751Z,0.70
2018-12-18T03:04:21.334Z,0.70
2018-12-18T03:06:52.804Z,0.70
2018-12-18T03:09:27.153Z,0.60
2018-12-18T03:11:58.887Z,0.50
2018-12-18T03:14:32.544Z,0.50
2018-12-18T03:17:11.210Z,0.40
2018-12-18T03:19:47.618Z,0.30
2018-12-18T03:22:17.066Z,0.30
2018-12-18T03:24:53.393Z,0.30
2018-12-18T03:27:25.454Z,0.30
2018-12-18T03:30:00.046Z,0.30
2018-12-18T03:32:37.022Z,0.40
2018-12-18T03:35:07.426Z,0.50
2018-12-18T03:37:39.113Z,0.50
2018-12-18T03:40:15.643Z,0.50
2018-12-18T03:42:47.274Z,0.50
2018-12-18T03:45:21.893Z,0.50
2018-12-18T03:47:51.641Z,0.50
2018-12-18T03:50:26.041Z,0.50
2018-12-18T03:52:57.825Z,0.50
2018-12-18T03:55:28.147Z,0.50
2018-12-18T03:58:03.598Z,0.50
2018-12-18T04:00:37.839Z,0.50
2018-12-18T04:03:12.485Z,0.50
2018-12-18T04:05:44.309Z,0.50
2018-12-18T04:08:21.953Z,0.40
2018-12-18T04:10:53.600Z,0.50
2018-12-18T04:13:28.203Z,0.50
2018-12-18T04:15:59.659Z,0.50
2018-12-18T04:18:31.935Z,0.50
2018-12-18T04:21:04.149Z,0.50
2018-12-18T04:23:38.748Z,-0.50
2018-12-18T04:26:08.634Z,0.50
2018-12-18T04:28:39.989Z,0.50
2018-12-18T04:31:18.533Z,0.40
2018-12-18T04:33:55.087Z,0.50
2018-12-18T04:36:32.957Z,0.40
2018-12-18T04:39:06.690Z,0.30
2018-12-18T04:41:40.498Z,0.40
2018-12-18T04:44:12.204Z,0.40
2018-12-18T04:46:42.250Z,0.40
2018-12-18T04:49:14.711Z,0.30
2018-12-18T04:51:49.447Z,0.40
2018-12-18T04:54:23.349Z,0.40
2018-12-18T04:56:57.435Z,0.30
2018-12-18T04:59:29.117Z,0.40
2018-12-18T05:02:03.711Z,0.40
2018-12-18T05:04:38.956Z,0.40
2018-12-18T05:07:09.288Z,0.40
2018-12-18T05:09:50.050Z,0.40
2018-12-18T05:12:26.594Z,0.40
2018-12-18T05:15:00.729Z,0.40
2018-12-18T05:17:41.233Z,0.40
2018-12-18T05:20:12.571Z,0.40
2018-12-18T05:22:49.334Z,0.40
2018-12-18T05:25:27.138Z,0.30
2018-12-18T05:28:01.279Z,0.40
2018-12-18T05:30:35.448Z,0.30
2018-12-18T05:33:09.790Z,0.40
2018-12-18T05:35:44.038Z,0.40
2018-12-18T05:38:19.269Z,0.40
2018-12-18T05:40:51.037Z,0.30
2018-12-18T05:43:20.397Z,0.30
2018-12-18T05:45:50.560Z,0.10
2018-12-18T05:48:26.341Z,0.30
2018-12-18T05:51:00.500Z,0.30
2018-12-18T05:53:32.420Z,0.30
2018-12-18T05:56:07.339Z,0.30
2018-12-18T05:58:48.024Z,0.30
2018-12-18T06:01:17.990Z,0.30
2018-12-18T06:03:51.763Z,0.30
2018-12-18T06:06:25.776Z,0.30
2018-12-18T06:08:57.534Z,0.30
2018-12-18T06:11:32.377Z,0.30
2018-12-18T06:14:06.067Z,0.30
2018-12-18T06:16:38.013Z,0.30
2018-12-18T06:19:10.054Z,0.30
2018-12-18T06:21:39.405Z,0.30
2018-12-18T06:24:19.669Z,0.30
2018-12-18T06:26:49.070Z,0.30
2018-12-18T06:29:23.490Z,0.40
2018-12-18T06:31:53.165Z,0.40
2018-12-18T06:34:29.053Z,0.40
2018-12-18T06:37:00.773Z,0.40
2018-12-18T06:42:25.222Z,0.30
2018-12-18T06:44:57.377Z,0.30
2018-12-18T06:47:28.945Z,0.30
2018-12-18T06:50:01.093Z,0.30
2018-12-18T06:52:32.824Z,0.30
2018-12-18T06:55:02.838Z,0.30
2018-12-18T06:57:34.793Z,0.20
2018-12-18T07:00:11.832Z,0.20
2018-12-18T07:02:43.300Z,0.20
2018-12-18T07:05:17.986Z,0.10
2018-12-18T07:07:57.518Z,0.10
2018-12-18T07:10:32.256Z,0.10
2018-12-18T07:13:08.103Z,0.10
2018-12-18T07:15:40.736Z,0.10
2018-12-18T07:18:15.562Z,0.10
2018-12-18T07:20:49.579Z,0.00
2018-12-18T07:23:21.529Z,0.00
2018-12-18T07:25:53.831Z,0.00
2018-12-18T07:28:30.422Z,0.00
2018-12-18T07:31:02.143Z,0.00
2018-12-18T07:33:44.127Z,0.00
2018-12-18T07:36:22.739Z,0.00
2018-12-18T07:38:54.417Z,0.10
2018-12-18T07:41:28.969Z,0.10
2018-12-18T07:44:05.433Z,0.20
2018-12-18T07:46:35.066Z,0.20
2018-12-18T07:49:15.105Z,0.30
2018-12-18T07:51:48.766Z,0.30
2018-12-18T07:54:20.371Z,0.40
2018-12-18T07:56:54.099Z,0.50
2018-12-18T07:59:32.319Z,0.50
2018-12-18T08:02:06.418Z,0.60
2018-12-18T08:04:38.053Z,0.60
2018-12-18T08:07:12.683Z,0.70
2018-12-18T08:09:44.557Z,0.70
2018-12-18T08:12:18.569Z,0.70
2018-12-18T08:14:49.850Z,0.80
2018-12-18T08:17:19.875Z,0.90
2018-12-18T08:19:54.778Z,0.90
2018-12-18T08:25:27.761Z,1.10
2018-12-18T08:28:02.734Z,1.10
2018-12-18T08:33:33.378Z,1.30
2018-12-18T08:38:57.711Z,1.20
2018-12-18T08:41:31.385Z,1.30
2018-12-18T08:44:05.861Z,1.40
2018-12-18T08:46:39.774Z,1.40
2018-12-18T08:49:13.868Z,1.50
2018-12-18T08:51:48.031Z,1.60
2018-12-18T08:54:17.719Z,1.70
2018-12-18T08:56:47.039Z,1.90
2018-12-18T08:59:16.409Z,2.00
2018-12-18T09:01:47.647Z,2.20
2018-12-18T09:04:19.802Z,2.40
2018-12-18T09:06:51.510Z,2.50
2018-12-18T09:09:26.375Z,2.70
2018-12-18T09:12:00.453Z,2.90
2018-12-18T09:14:38.657Z,2.90
2018-12-18T09:20:15.537Z,3.10
2018-12-18T09:22:47.457Z,3.20
2018-12-18T09:25:28.340Z,3.30
2018-12-18T09:28:12.311Z,3.40
2018-12-18T09:30:53.223Z,3.50
2018-12-18T09:33:24.581Z,3.50
2018-12-18T09:36:04.710Z,3.40
2018-12-18T09:38:42.252Z,3.40
2018-12-18T09:44:08.129Z,3.50
2018-12-18T09:46:45.822Z,3.60
2018-12-18T09:49:23.854Z,3.70
2018-12-18T09:51:55.639Z,3.60
2018-12-18T09:54:27.800Z,3.60
2018-12-18T09:57:01.228Z,3.40
2018-12-18T09:59:31.306Z,3.60
2018-12-18T10:02:00.551Z,3.90
2018-12-18T10:04:37.194Z,4.10
2018-12-18T10:07:11.721Z,4.40
2018-12-18T10:09:45.670Z,4.60
2018-12-18T10:12:17.405Z,4.60
2018-12-18T10:14:52.431Z,4.80
2018-12-18T10:17:26.184Z,4.90
2018-12-18T10:19:58.029Z,4.90
2018-12-18T10:22:38.106Z,4.90
2018-12-18T10:25:10.503Z,5.00
2018-12-18T10:27:45.536Z,5.00
2018-12-18T10:30:24.138Z,4.90
2018-12-18T10:32:58.635Z,4.90
2018-12-18T10:35:28.065Z,5.00
2018-12-18T10:38:02.817Z,4.90
2018-12-18T10:40:43.271Z,4.90
2018-12-18T10:43:23.416Z,4.30
2018-12-18T10:45:54.754Z,4.90
2018-12-18T10:48:24.875Z,5.00
2018-12-18T10:50:56.921Z,5.00
2018-12-18T10:53:30.665Z,5.10
2018-12-18T10:56:02.414Z,5.10
2018-12-18T10:58:32.979Z,4.90
2018-12-18T11:01:10.234Z,4.80
2018-12-18T11:03:42.139Z,4.80
2018-12-18T11:06:14.186Z,4.80
2018-12-18T11:08:48.597Z,4.80
2018-12-18T11:14:11.782Z,4.60
2018-12-18T11:16:48.311Z,4.70
2018-12-18T11:19:22.876Z,4.90
2018-12-18T11:21:54.621Z,5.00
2018-12-18T11:24:27.328Z,5.10
2018-12-18T11:26:58.611Z,5.20
2018-12-18T11:29:32.513Z,5.40
2018-12-18T11:32:03.957Z,5.40
2018-12-18T11:34:37.846Z,5.20
2018-12-18T11:37:09.641Z,5.10
2018-12-18T11:39:41.800Z,5.10
2018-12-18T11:42:12.380Z,5.20
2018-12-18T11:44:47.424Z,5.00
2018-12-18T11:47:24.305Z,5.00
2018-12-18T11:49:59.181Z,5.10
2018-12-18T11:52:33.906Z,5.00
2018-12-18T11:55:03.659Z,4.70
2018-12-18T11:57:38.441Z,4.80
2018-12-18T12:00:12.730Z,4.60
2018-12-18T12:02:43.088Z,4.80
2018-12-18T12:05:12.463Z,4.60
2018-12-18T12:07:52.821Z,4.60
2018-12-18T12:10:33.672Z,4.60
2018-12-18T12:13:05.122Z,4.60
2018-12-18T12:15:36.353Z,4.60
2018-12-18T12:18:07.647Z,4.50
2018-12-18T12:20:41.507Z,4.50
2018-12-18T12:23:19.544Z,4.40
2018-12-18T12:25:51.113Z,4.40
2018-12-18T12:28:22.574Z,4.30
2018-12-18T12:30:53.851Z,4.30
2018-12-18T12:33:25.934Z,4.20
2018-12-18T12:35:58.241Z,4.20
2018-12-18T12:38:28.430Z,4.30
2018-12-18T12:41:08.538Z,4.30
2018-12-18T12:46:52.402Z,4.40
2018-12-18T12:49:37.873Z,4.40
2018-12-18T12:52:09.771Z,4.40
2018-12-18T12:54:53.043Z,4.30
2018-12-18T12:57:27.330Z,4.10
2018-12-18T12:59:59.347Z,4.10
2018-12-18T13:02:35.919Z,4.00
2018-12-18T13:05:08.036Z,4.00
2018-12-18T13:07:43.195Z,3.90
2018-12-18T13:10:21.362Z,3.90
2018-12-18T13:12:51.058Z,3.80
2018-12-18T13:15:31.939Z,3.60
2018-12-18T13:18:12.526Z,3.60
2018-12-18T13:20:53.500Z,3.50
2018-12-18T13:23:33.869Z,3.50
2018-12-18T13:26:08.493Z,3.30
2018-12-18T13:28:49.411Z,3.40
2018-12-18T13:31:23.868Z,3.40
2018-12-18T13:33:53.885Z,3.30
2018-12-18T13:36:32.306Z,3.30
2018-12-18T13:39:15.290Z,3.20
2018-12-18T13:41:48.437Z,3.10
2018-12-18T13:44:35.534Z,3.10
2018-12-18T13:47:05.092Z,3.00
2018-12-18T13:49:37.250Z,3.00
2018-12-18T13:52:13.503Z,3.00
2018-12-18T13:54:47.461Z,2.90
2018-12-18T13:57:25.546Z,2.90
2018-12-18T14:00:02.051Z,2.80
2018-12-18T14:02:33.497Z,2.80
2018-12-18T14:05:08.015Z,2.80
2018-12-18T14:07:43.336Z,2.70
2018-12-18T14:10:14.945Z,2.80
2018-12-18T14:12:54.750Z,2.80
2018-12-18T14:15:29.693Z,2.80
2018-12-18T14:18:04.391Z,2.70
2018-12-18T14:20:38.642Z,2.70
2018-12-18T14:23:12.927Z,2.70
2018-12-18T14:25:45.602Z,2.60
2018-12-18T14:28:17.137Z,2.60
2018-12-18T14:30:51.122Z,2.50
2018-12-18T14:33:25.183Z,2.50
2018-12-18T14:36:05.807Z,2.50
2018-12-18T14:38:37.049Z,2.50
2018-12-18T14:41:11.654Z,2.50
2018-12-18T14:43:47.087Z,2.50
2018-12-18T14:46:18.964Z,2.50
2018-12-18T14:48:50.533Z,2.50
2018-12-18T14:51:22.224Z,2.50
2018-12-18T14:53:57.626Z,2.40
2018-12-18T14:56:29.230Z,2.40
2018-12-18T14:59:03.058Z,2.40
2018-12-18T15:01:33.215Z,2.40
2018-12-18T15:04:11.482Z,2.40
2018-12-18T15:06:43.221Z,2.40
2018-12-18T15:09:17.926Z,2.40
2018-12-18T15:11:55.895Z,2.40
2018-12-18T15:14:25.497Z,2.40
2018-12-18T15:16:59.160Z,2.40
2018-12-18T15:19:33.275Z,2.40
2018-12-18T15:22:04.698Z,2.30
2018-12-18T15:24:37.304Z,2.40
2018-12-18T15:29:37.567Z,2.40
2018-12-18T15:32:10.087Z,2.40
2018-12-18T15:34:42.249Z,2.40
2018-12-18T15:37:13.533Z,2.40
2018-12-18T15:39:43.714Z,2.40
2018-12-18T15:42:15.706Z,2.40
2018-12-18T15:44:50.357Z,2.40
2018-12-18T15:47:28.573Z,2.40
2018-12-18T15:50:00.052Z,2.40
2018-12-18T15:52:34.537Z,2.40
2018-12-18T15:55:08.621Z,2.40
2018-12-18T15:57:40.382Z,2.40
2018-12-18T16:00:11.805Z,2.40
2018-12-18T16:02:46.663Z,2.40
2018-12-18T16:05:16.250Z,2.40
2018-12-18T16:07:48.501Z,2.30
2018-12-18T16:10:20.775Z,2.40
2018-12-18T16:12:56.425Z,2.40
2018-12-18T16:15:34.177Z,2.40
2018-12-18T16:18:08.638Z,2.40
2018-12-18T16:20:42.582Z,2.30
2018-12-18T16:26:23.471Z,2.30
2018-12-18T16:28:57.527Z,2.30
2018-12-18T16:31:32.148Z,2.30
2018-12-18T16:34:06.221Z,2.30
2018-12-18T16:36:41.337Z,2.40
2018-12-18T16:39:15.986Z,2.30
2018-12-18T16:41:50.541Z,2.30
2018-12-18T16:44:24.222Z,2.30
2018-12-18T16:46:55.985Z,2.30
2018-12-18T16:49:28.034Z,2.30
2018-12-18T16:52:01.805Z,2.30
2018-12-18T16:54:37.927Z,2.30
2018-12-18T16:57:13.221Z,2.20
2018-12-18T16:59:45.049Z,2.20
2018-12-18T17:02:20.527Z,2.20
2018-12-18T17:04:52.555Z,2.20
2018-12-18T17:07:43.731Z,2.20
2018-12-18T17:10:15.830Z,2.20
2018-12-18T17:12:50.493Z,2.20
2018-12-18T17:15:32.091Z,2.20
2018-12-18T17:18:10.372Z,2.20
2018-12-18T17:20:45.773Z,2.20
2018-12-18T17:23:17.598Z,2.20
2018-12-18T17:25:56.038Z,2.10
2018-12-18T17:28:30.212Z,2.10
2018-12-18T17:31:04.449Z,2.10
2018-12-18T17:33:36.513Z,2.10
2018-12-18T17:36:10.210Z,2.10
2018-12-18T17:38:45.729Z,2.00
2018-12-18T17:41:18.009Z,2.00
2018-12-18T17:43:50.604Z,2.00
2018-12-18T17:46:22.677Z,2.00
2018-12-18T17:48:54.466Z,2.00
2018-12-18T17:51:23.845Z,1.90
2018-12-18T17:54:04.725Z,1.90
2018-12-18T17:56:44.791Z,1.90
2018-12-18T17:59:16.581Z,1.90
2018-12-18T18:01:48.517Z,1.80
2018-12-18T18:04:22.325Z,1.80
2018-12-18T18:06:54.425Z,1.90
2018-12-18T18:09:26.426Z,1.80
2018-12-18T18:11:58.569Z,1.70
2018-12-18T18:14:32.371Z,1.70
2018-12-18T18:17:04.401Z,1.70
2018-12-18T18:19:34.543Z,1.70
2018-12-18T18:22:06.509Z,1.70
2018-12-18T18:24:46.581Z,1.70
2018-12-18T18:27:18.060Z,1.60
2018-12-18T18:29:53.749Z,1.60
2018-12-18T18:32:27.691Z,1.60
2018-12-18T18:35:12.274Z,1.60
2018-12-18T18:37:49.639Z,1.60
2018-12-18T18:40:18.017Z,1.60
2018-12-18T18:42:51.806Z,1.50
2018-12-18T18:45:23.789Z,1.50
2018-12-18T18:47:59.487Z,1.50
2018-12-18T18:50:29.530Z,1.50
2018-12-18T18:53:01.557Z,1.40
2018-12-18T18:55:33.073Z,1.50
2018-12-18T18:58:18.192Z,1.50
2018-12-18T19:00:53.937Z,1.40
2018-12-18T19:03:31.810Z,1.40
2018-12-18T19:06:03.561Z,1.40
2018-12-18T19:08:33.135Z,1.40
2018-12-18T19:14:03.553Z,1.30
2018-12-18T19:16:37.807Z,1.30
2018-12-18T19:19:09.616Z,1.20
2018-12-18T19:21:39.627Z,1.20
2018-12-18T19:24:15.479Z,1.20
2018-12-18T19:26:45.414Z,1.20
2018-12-18T19:29:23.050Z,1.20
2018-12-18T19:31:54.581Z,1.20
2018-12-18T19:34:28.351Z,1.20
2018-12-18T19:36:58.311Z,1.10
2018-12-18T19:39:30.042Z,1.10
2018-12-18T19:42:16.811Z,1.10
2018-12-18T19:44:47.421Z,1.10
2018-12-18T19:47:22.901Z,1.00
2018-12-18T19:49:54.748Z,1.00
2018-12-18T19:52:24.905Z,1.00
2018-12-18T19:55:02.569Z,1.00
2018-12-18T19:57:36.937Z,1.00
2018-12-18T20:00:09.145Z,1.00
2018-12-18T20:02:44.099Z,1.00
2018-12-18T20:05:13.926Z,0.90
2018-12-18T20:07:48.549Z,1.00
2018-12-18T20:10:23.865Z,0.90
2018-12-18T20:13:00.909Z,0.90
2018-12-18T20:15:32.198Z,1.00
2018-12-18T20:21:11.155Z,1.00
2018-12-18T20:23:44.844Z,1.00
2018-12-18T20:26:14.842Z,0.90
2018-12-18T20:28:49.034Z,0.90
2018-12-18T20:31:20.929Z,0.90
2018-12-18T20:34:02.749Z,0.90
2018-12-18T20:36:36.980Z,1.00
2018-12-18T20:39:14.923Z,1.00
2018-12-18T20:41:44.203Z,0.80
2018-12-18T20:44:18.801Z,1.10
2018-12-18T20:46:50.479Z,0.90
2018-12-18T20:49:28.154Z,0.90
2018-12-18T20:52:06.733Z,0.90
2018-12-18T20:54:38.502Z,0.90
2018-12-18T20:57:08.984Z,0.80
2018-12-18T20:59:45.264Z,0.80
2018-12-18T21:02:16.912Z,0.90
2018-12-18T21:04:49.074Z,0.90
2018-12-18T21:07:21.793Z,0.80
2018-12-18T21:09:54.354Z,0.80
2018-12-18T21:12:26.160Z,0.80
2018-12-18T21:15:00.803Z,0.80
2018-12-18T21:17:35.703Z,0.80
2018-12-18T21:20:08.917Z,0.90
2018-12-18T21:22:43.050Z,0.90
2018-12-18T21:25:21.193Z,0.90
2018-12-18T21:27:55.504Z,0.90
2018-12-18T21:30:25.166Z,0.90
2018-12-18T21:33:01.825Z,1.00
2018-12-18T21:35:33.326Z,1.00
2018-12-18T21:38:07.879Z,1.00
2018-12-18T21:40:48.800Z,1.00
2018-12-18T21:43:23.432Z,1.00
2018-12-18T21:46:01.201Z,1.00
2018-12-18T21:48:33.696Z,1.00
2018-12-18T21:51:10.230Z,1.00
2018-12-18T21:53:42.117Z,1.00
2018-12-18T21:56:16.816Z,1.00
2018-12-18T21:58:53.938Z,1.00
2018-12-18T22:01:28.147Z,1.00
2018-12-18T22:04:02.534Z,0.90
2018-12-18T22:06:34.389Z,0.90
2018-12-18T22:09:10.941Z,0.80
2018-12-18T22:11:43.117Z,0.80
2018-12-18T22:14:15.241Z,0.70
2018-12-18T22:16:50.891Z,0.70
2018-12-18T22:19:26.992Z,0.60
2018-12-18T22:22:01.377Z,0.60
2018-12-18T22:24:35.106Z,0.60
2018-12-18T22:27:05.248Z,0.50
2018-12-18T22:29:37.189Z,0.40
2018-12-18T22:32:13.703Z,0.40
2018-12-18T22:34:47.917Z,0.30
2018-12-18T22:37:26.192Z,0.20
2018-12-18T22:39:57.939Z,0.20
2018-12-18T22:42:29.901Z,0.20
2018-12-18T22:45:05.603Z,0.10
2018-12-18T22:47:40.592Z,0.00
2018-12-18T22:50:14.648Z,0.00
2018-12-18T22:52:44.314Z,0.00
2018-12-18T22:55:14.228Z,-0.10
2018-12-18T22:57:46.369Z,-0.10
2018-12-18T23:00:26.548Z,-0.20
2018-12-18T23:03:04.790Z,-0.20
2018-12-18T23:05:36.880Z,-0.20
2018-12-18T23:08:06.421Z,-0.30
2018-12-18T23:10:46.675Z,-0.30
2018-12-18T23:13:23.225Z,-0.30
2018-12-18T23:16:03.377Z,-0.30
2018-12-18T23:18:38.240Z,-0.40
2018-12-18T23:21:13.309Z,-0.40
2018-12-18T23:23:47.519Z,-0.40
2018-12-18T23:26:25.753Z,-0.40
2018-12-18T23:28:57.686Z,-0.40
2018-12-18T23:31:29.425Z,-0.40
2018-12-18T23:33:58.849Z,-0.40
2018-12-18T23:36:36.601Z,-0.30
2018-12-18T23:39:08.528Z,-0.30
2018-12-18T23:41:41.356Z,-0.30
2018-12-18T23:44:19.913Z,-0.20
2018-12-18T23:46:49.462Z,-0.20
2018-12-18T23:49:21.996Z,-0.20
2018-12-18T23:51:56.475Z,-0.30
2018-12-18T23:54:34.570Z,-0.20
2018-12-18T23:57:06.373Z,-0.20
2018-12-18T23:59:43.199Z,-0.20
